Helene — V2BK5 — position and weather

sailwx.info

Track history (hours):
 
Tides and Currents Weather Stations Pressure Air Temp Water Temp Dewpoint Dewpoint Depression Visibility Wind Speed Wind Dir Waves Ship Positions

Helene

Last reported at 2014-Oct-22 13:33 UTC. Time now 2014-Oct-25 10:14 UTC.
Position N 39°37' W 000°12'.

Length 140 m; draft 6.9 m.

Type: Cargo ship. MMSI: 304846000.

Date/timePositionNaut miles runAvg speedWind from/ knotsBaromVisibWave heightAir tempDewpointWater temp
2014-Oct-22 13:33N 39°37' W 000°12'2 0.2
2014-Oct-22 03:25N 39°39' W 000°13'3 3.5
2014-Oct-22 02:31N 39°36' W 000°11'9 9.3
2014-Oct-22 01:33N 39°30' W 000°03'5713.4
2014-Oct-21 21:16N 38°36' E 000°23'1114.4
2014-Oct-21 20:32N 38°27' E 000°15'1414.5
2014-Oct-21 19:33N 38°16' E 000°05'1514.7
2014-Oct-21 18:33N 38°04' W 000°05'1515.2
2014-Oct-21 17:33N 37°51' W 000°16'1514.7
2014-Oct-21 16:34N 37°39' W 000°26'1514.8
2014-Oct-21 15:33N 37°28' W 000°38'1515.0
2014-Oct-21 14:34N 37°18' W 000°52'1515.1
2014-Oct-21 13:33N 37°08' W 001°07'1515.4
2014-Oct-21 12:33N 36°57' W 001°21'19114.3
2014-Oct-20 23:09N 36°04' W 005°09'914.3
2014-Oct-20 22:33N 36°04' W 005°20'3 2.3
2014-Oct-20 21:11N 36°07' W 005°21'0 0.1
2014-Oct-20 19:29N 36°07' W 005°21'0 0.1
2014-Oct-20 18:15N 36°07' W 005°21'0 0.0
2014-Oct-20 15:18N 36°07' W 005°21'0 0.0
2014-Oct-20 13:18N 36°07' W 005°21'0 0.0
2014-Oct-20 12:30N 36°07' W 005°21'0 0.1
2014-Oct-20 11:33N 36°07' W 005°21'5 4.6
2014-Oct-20 10:33N 36°03' W 005°18'3 2.6
2014-Oct-20 09:33N 36°01' W 005°16'7 7.0
2014-Oct-20 08:33N 35°58' W 005°25'10411.4
2014-Oct-19 23:25N 35°18' W 007°23'1312.7
2014-Oct-19 22:24N 35°12' W 007°37'1513.0
2014-Oct-19 21:14N 35°04' W 007°52'912.9
2014-Oct-19 20:33N 34°59' W 008°01'1312.9
2014-Oct-19 19:33N 34°51' W 008°14'8512.1
2014-Oct-19 12:33N 34°07' W 009°41'1211.7
2014-Oct-19 11:33N 34°00' W 009°53'1211.9
2014-Oct-19 10:33N 33°54' W 010°05'1212.3
2014-Oct-19 09:33N 33°48' W 010°18'1212.3
2014-Oct-19 08:33N 33°42' W 010°31'1312.7
2014-Oct-19 07:34N 33°35' W 010°44'1312.9
2014-Oct-19 06:33N 33°28' W 010°57'2612.5
2014-Oct-19 04:29N 33°14' W 011°23'2010.2
2014-Oct-19 02:33N 32°59' W 011°37'  
Track history (hours):
 
Tides and Currents Weather Stations Pressure Air Temp Water Temp Dewpoint Dewpoint Depression Visibility Wind Speed Wind Dir Waves Ship Positions

Helene

Last reported at 2014-Oct-22 13:33 UTC. Time now 2014-Oct-25 10:14 UTC.
Position N 39°37' W 000°12'.

Length 140 m; draft 6.9 m.

Type: Cargo ship. MMSI: 304846000.

Date/timePositionNaut miles runAvg speedWind from/ knotsBaromVisibWave heightAir tempDewpointWater temp
2014-Oct-22 13:33N 39°37' W 000°12'2 0.2
2014-Oct-22 03:25N 39°39' W 000°13'3 3.5
2014-Oct-22 02:31N 39°36' W 000°11'9 9.3
2014-Oct-22 01:33N 39°30' W 000°03'5713.4
2014-Oct-21 21:16N 38°36' E 000°23'1114.4
2014-Oct-21 20:32N 38°27' E 000°15'1414.5
2014-Oct-21 19:33N 38°16' E 000°05'1514.7
2014-Oct-21 18:33N 38°04' W 000°05'1515.2
2014-Oct-21 17:33N 37°51' W 000°16'1514.7
2014-Oct-21 16:34N 37°39' W 000°26'1514.8
2014-Oct-21 15:33N 37°28' W 000°38'1515.0
2014-Oct-21 14:34N 37°18' W 000°52'1515.1
2014-Oct-21 13:33N 37°08' W 001°07'1515.4
2014-Oct-21 12:33N 36°57' W 001°21'19114.3
2014-Oct-20 23:09N 36°04' W 005°09'914.3
2014-Oct-20 22:33N 36°04' W 005°20'3 2.3
2014-Oct-20 21:11N 36°07' W 005°21'0 0.1
2014-Oct-20 19:29N 36°07' W 005°21'0 0.1
2014-Oct-20 18:15N 36°07' W 005°21'0 0.0
2014-Oct-20 15:18N 36°07' W 005°21'0 0.0
2014-Oct-20 13:18N 36°07' W 005°21'0 0.0
2014-Oct-20 12:30N 36°07' W 005°21'0 0.1
2014-Oct-20 11:33N 36°07' W 005°21'5 4.6
2014-Oct-20 10:33N 36°03' W 005°18'3 2.6
2014-Oct-20 09:33N 36°01' W 005°16'7 7.0
2014-Oct-20 08:33N 35°58' W 005°25'10411.4
2014-Oct-19 23:25N 35°18' W 007°23'1312.7
2014-Oct-19 22:24N 35°12' W 007°37'1513.0
2014-Oct-19 21:14N 35°04' W 007°52'912.9
2014-Oct-19 20:33N 34°59' W 008°01'1312.9
2014-Oct-19 19:33N 34°51' W 008°14'8512.1
2014-Oct-19 12:33N 34°07' W 009°41'1211.7
2014-Oct-19 11:33N 34°00' W 009°53'1211.9
2014-Oct-19 10:33N 33°54' W 010°05'1212.3
2014-Oct-19 09:33N 33°48' W 010°18'1212.3
2014-Oct-19 08:33N 33°42' W 010°31'1312.7
2014-Oct-19 07:34N 33°35' W 010°44'1312.9
2014-Oct-19 06:33N 33°28' W 010°57'2612.5
2014-Oct-19 04:29N 33°14' W 011°23'2010.2
2014-Oct-19 02:33N 32°59' W 011°37'  

Dump ship's entire track history